createdAt,value
2019-05-06T00:00:04.726Z,4.20
2019-05-06T00:05:30.546Z,4.46
2019-05-06T00:10:55.089Z,4.37
2019-05-06T00:16:19.935Z,4.40
2019-05-06T00:21:44.349Z,4.32
2019-05-06T00:27:15.278Z,4.30
2019-05-06T00:32:39.448Z,4.24
2019-05-06T00:38:04.483Z,4.20
2019-05-06T00:43:29.846Z,4.10
2019-05-06T00:48:55.065Z,3.93
2019-05-06T00:54:21.572Z,3.89
2019-05-06T00:59:45.409Z,3.88
2019-05-06T01:05:10.511Z,3.89
2019-05-06T01:10:35.358Z,3.82
2019-05-06T01:15:59.646Z,3.81
2019-05-06T01:21:24.455Z,3.76
2019-05-06T01:26:48.936Z,3.78
2019-05-06T01:32:13.996Z,3.85
2019-05-06T01:37:39.923Z,4.11
2019-05-06T01:43:08.321Z,4.34
2019-05-06T01:48:47.805Z,4.45
2019-05-06T01:54:14.213Z,4.72
2019-05-06T01:59:37.513Z,4.94
2019-05-06T02:05:04.498Z,5.10
2019-05-06T02:10:28.632Z,5.47
2019-05-06T02:15:54.751Z,5.72
2019-05-06T02:21:38.365Z,5.87
2019-05-06T02:27:04.361Z,5.96
2019-05-06T02:32:36.089Z,5.91
2019-05-06T02:38:00.074Z,5.76
2019-05-06T02:43:23.770Z,5.53
2019-05-06T02:49:07.392Z,5.32
2019-05-06T02:54:34.531Z,5.22
2019-05-06T02:59:57.099Z,4.95
2019-05-06T03:05:23.706Z,4.77
2019-05-06T03:10:47.191Z,4.54
2019-05-06T03:16:14.134Z,4.39
2019-05-06T03:22:03.149Z,4.19
2019-05-06T03:27:26.510Z,3.99
2019-05-06T03:33:27.404Z,3.89
2019-05-06T03:38:16.487Z,3.71
2019-05-06T03:43:43.353Z,3.62
2019-05-06T03:49:06.813Z,3.51
2019-05-06T03:54:34.290Z,3.35
2019-05-06T04:00:00.113Z,3.28
2019-05-06T04:05:24.619Z,3.24
2019-05-06T04:10:53.800Z,3.30
2019-05-06T04:16:23.154Z,3.45
2019-05-06T04:21:58.599Z,3.77
2019-05-06T04:27:33.518Z,4.39
2019-05-06T04:32:58.669Z,4.82
2019-05-06T04:38:23.984Z,5.28
2019-05-06T04:43:48.390Z,5.61
2019-05-06T04:49:15.016Z,6.03
2019-05-06T04:54:39.660Z,6.65
2019-05-06T05:00:04.578Z,7.16
2019-05-06T05:05:32.846Z,7.38
2019-05-06T05:11:03.405Z,7.75
2019-05-06T05:16:33.181Z,8.58
2019-05-06T05:22:06.011Z,8.78
2019-05-06T05:27:32.918Z,8.41
2019-05-06T05:32:57.947Z,8.92
2019-05-06T05:38:22.907Z,8.85
2019-05-06T05:44:02.294Z,8.87
2019-05-06T05:49:45.974Z,8.62
2019-05-06T05:55:12.059Z,10.11
2019-05-06T06:00:36.896Z,9.92
2019-05-06T06:06:03.031Z,10.62
2019-05-06T06:11:32.868Z,10.68
2019-05-06T06:17:15.316Z,11.48
2019-05-06T06:22:39.294Z,11.95
2019-05-06T06:28:03.453Z,11.01
2019-05-06T06:33:28.315Z,11.95
2019-05-06T06:39:07.629Z,11.23
2019-05-06T06:44:33.760Z,10.95
2019-05-06T06:49:57.785Z,13.20
2019-05-06T06:55:22.848Z,10.96
2019-05-06T07:00:57.329Z,12.68
2019-05-06T07:06:39.307Z,13.26
2019-05-06T07:12:03.734Z,12.63
2019-05-06T07:17:28.847Z,11.86
2019-05-06T07:22:53.508Z,12.73
2019-05-06T07:28:17.172Z,11.71
2019-05-06T07:33:42.961Z,11.49
2019-05-06T07:39:08.007Z,12.68
2019-05-06T07:45:06.129Z,12.08
2019-05-06T07:50:26.284Z,11.65
2019-05-06T07:55:52.481Z,11.41
2019-05-06T08:01:16.644Z,12.25
2019-05-06T08:06:42.750Z,13.84
2019-05-06T08:12:06.641Z,12.68
2019-05-06T08:17:35.259Z,11.47
2019-05-06T08:23:07.185Z,12.34
2019-05-06T08:28:40.477Z,11.67
2019-05-06T08:33:57.820Z,13.97
2019-05-06T08:39:22.060Z,12.38
2019-05-06T08:44:47.627Z,10.90
2019-05-06T08:50:23.366Z,12.91
2019-05-06T08:55:47.795Z,12.87
2019-05-06T09:01:13.662Z,12.56
2019-05-06T09:06:37.673Z,12.43
2019-05-06T09:12:02.920Z,13.53
2019-05-06T09:17:27.538Z,14.18
2019-05-06T09:22:52.236Z,12.44
2019-05-06T09:28:26.566Z,12.65
2019-05-06T09:34:05.002Z,14.30
2019-05-06T09:39:29.107Z,14.82
2019-05-06T09:44:54.429Z,12.86
2019-05-06T09:50:46.730Z,13.11
2019-05-06T09:56:22.969Z,12.44
2019-05-06T10:01:46.224Z,11.83
2019-05-06T10:07:11.920Z,11.88
2019-05-06T10:12:37.172Z,11.07
2019-05-06T10:18:08.754Z,11.68
2019-05-06T10:23:32.867Z,11.71
2019-05-06T10:29:15.088Z,11.60
2019-05-06T10:34:39.086Z,11.97
2019-05-06T10:40:15.280Z,12.92
2019-05-06T10:45:39.703Z,13.82
2019-05-06T10:51:17.221Z,13.90
2019-05-06T10:57:06.132Z,12.48
2019-05-06T11:02:47.995Z,11.94
2019-05-06T11:08:11.471Z,11.89
2019-05-06T11:13:36.400Z,12.91
2019-05-06T11:19:02.186Z,12.73
2019-05-06T11:24:26.436Z,14.28
2019-05-06T11:29:53.070Z,13.81
2019-05-06T11:35:25.452Z,12.44
2019-05-06T11:40:49.724Z,12.53
2019-05-06T11:46:13.424Z,13.02
2019-05-06T11:51:38.050Z,13.82
2019-05-06T11:57:04.199Z,15.16
2019-05-06T12:02:28.829Z,13.77
2019-05-06T12:08:01.884Z,14.35
2019-05-06T12:13:18.452Z,14.45
2019-05-06T12:18:43.685Z,16.53
2019-05-06T12:24:07.533Z,16.74
2019-05-06T12:29:32.392Z,14.94
2019-05-06T12:34:57.830Z,14.24
2019-05-06T12:40:22.363Z,13.77
2019-05-06T12:45:47.489Z,14.54
2019-05-06T12:51:12.099Z,12.88
2019-05-06T12:56:36.843Z,13.14
2019-05-06T13:02:02.723Z,12.84
2019-05-06T13:07:37.472Z,13.81
2019-05-06T13:13:05.528Z,13.95
2019-05-06T13:18:32.150Z,14.16
2019-05-06T13:24:02.388Z,14.45
2019-05-06T13:29:28.942Z,14.68
2019-05-06T13:34:52.755Z,14.89
2019-05-06T13:40:17.779Z,16.01
2019-05-06T13:45:43.256Z,17.21
2019-05-06T13:51:12.422Z,16.03
2019-05-06T13:56:36.137Z,15.04
2019-05-06T14:02:08.652Z,15.41
2019-05-06T14:07:34.694Z,15.76
2019-05-06T14:12:59.196Z,14.78
2019-05-06T14:18:23.712Z,15.49
2019-05-06T14:23:47.386Z,15.15
2019-05-06T14:29:23.553Z,14.98
2019-05-06T14:34:47.876Z,14.17
2019-05-06T14:40:16.661Z,15.62
2019-05-06T14:45:42.311Z,14.38
2019-05-06T14:51:06.233Z,14.57
2019-05-06T14:56:42.975Z,14.96
2019-05-06T15:02:07.769Z,14.52
2019-05-06T15:07:33.031Z,14.35
2019-05-06T15:12:57.788Z,14.18
2019-05-06T15:18:22.461Z,14.45
2019-05-06T15:23:47.064Z,13.90
2019-05-06T15:29:12.648Z,12.70
2019-05-06T15:35:08.043Z,12.71
2019-05-06T15:40:36.393Z,12.67
2019-05-06T15:45:58.537Z,12.42
2019-05-06T15:51:34.442Z,12.31
2019-05-06T15:56:58.510Z,12.12
2019-05-06T16:02:23.347Z,11.76
2019-05-06T16:07:48.207Z,11.86
2019-05-06T16:13:13.027Z,11.59
2019-05-06T16:18:36.721Z,11.54
2019-05-06T16:24:09.135Z,11.12
2019-05-06T16:29:35.628Z,11.10
2019-05-06T16:34:59.723Z,11.02
2019-05-06T16:40:23.964Z,10.93
2019-05-06T16:45:48.474Z,10.87
2019-05-06T16:51:12.720Z,10.71
2019-05-06T16:56:44.703Z,10.73
2019-05-06T17:02:14.386Z,10.77
2019-05-06T17:07:39.038Z,10.49
2019-05-06T17:13:03.151Z,10.45
2019-05-06T17:18:27.798Z,10.13
2019-05-06T17:23:52.560Z,9.93
2019-05-06T17:29:24.151Z,9.85
2019-05-06T17:34:52.722Z,9.59
2019-05-06T17:40:18.176Z,9.31
2019-05-06T17:46:01.791Z,9.28
2019-05-06T17:51:42.638Z,9.36
2019-05-06T17:57:07.561Z,9.46
2019-05-06T18:02:32.630Z,9.44
2019-05-06T18:07:57.267Z,9.41
2019-05-06T18:13:21.972Z,9.39
2019-05-06T18:18:46.631Z,9.33
2019-05-06T18:24:12.934Z,9.29
2019-05-06T18:29:37.323Z,9.16
2019-05-06T18:35:02.623Z,9.07
2019-05-06T18:40:27.123Z,9.01
2019-05-06T18:45:53.015Z,8.95
2019-05-06T18:51:16.743Z,8.84
2019-05-06T18:56:42.754Z,8.74
2019-05-06T19:02:06.406Z,8.68
2019-05-06T19:07:33.275Z,8.59
2019-05-06T19:12:57.036Z,8.53
2019-05-06T19:18:22.468Z,8.47
2019-05-06T19:23:47.417Z,8.41
2019-05-06T19:29:12.259Z,8.32
2019-05-06T19:34:36.716Z,8.31
2019-05-06T19:40:02.698Z,8.23
2019-05-06T19:45:26.061Z,8.07
2019-05-06T19:50:52.224Z,8.01
2019-05-06T19:56:16.716Z,7.94
2019-05-06T20:01:42.781Z,7.87
2019-05-06T20:07:13.343Z,7.69
2019-05-06T20:12:40.653Z,7.59
2019-05-06T20:18:05.301Z,7.62
2019-05-06T20:23:30.304Z,7.57
2019-05-06T20:28:54.811Z,7.48
2019-05-06T20:34:19.703Z,7.47
2019-05-06T20:39:44.356Z,7.45
2019-05-06T20:45:09.115Z,7.39
2019-05-06T20:50:33.122Z,7.35
2019-05-06T20:55:56.894Z,7.31
2019-05-06T21:01:21.944Z,7.27
2019-05-06T21:06:46.144Z,7.25
2019-05-06T21:12:11.162Z,7.18
2019-05-06T21:17:35.043Z,7.21
2019-05-06T21:23:02.333Z,7.20
2019-05-06T21:28:26.048Z,7.13
2019-05-06T21:33:52.208Z,7.08
2019-05-06T21:39:16.034Z,6.90
2019-05-06T21:44:40.199Z,6.69
2019-05-06T21:50:05.604Z,6.47
2019-05-06T21:55:29.485Z,6.34
2019-05-06T22:01:02.357Z,6.33
2019-05-06T22:06:28.873Z,6.19
2019-05-06T22:11:53.383Z,5.97
2019-05-06T22:17:17.231Z,5.88
2019-05-06T22:22:42.588Z,5.78
2019-05-06T22:28:07.605Z,5.70
2019-05-06T22:33:32.527Z,5.76
2019-05-06T22:38:57.152Z,5.72
2019-05-06T22:44:22.812Z,5.64
2019-05-06T22:49:46.599Z,5.55
2019-05-06T22:55:12.998Z,5.53
2019-05-06T23:00:39.475Z,5.50
2019-05-06T23:06:03.938Z,5.43
2019-05-06T23:11:28.347Z,5.38
2019-05-06T23:16:52.469Z,5.42
2019-05-06T23:22:16.837Z,5.59
2019-05-06T23:27:43.856Z,5.69
2019-05-06T23:33:06.638Z,5.81
2019-05-06T23:39:07.997Z,5.88
2019-05-06T23:45:08.549Z,5.90
2019-05-06T23:51:08.618Z,5.92
2019-05-06T23:56:46.934Z,5.95
